トロンハイム の空港の天気 - METARとTAF

Trondheim / Vaernes ( ENVA / TRD ) - ノルウェー ヌール・トロンデラーグ県、Stjordal
飛行場実況気象(Metar)
観測時間05/28 11:50 CEST (05/28 09:50 UTC)
風向・風速西 12m/s
視程10km以上
天気現象弱い雨
少しの雲 雲底高度 400m
全天の8割程度の雲 雲底高度 580m
気温8℃
湿度87%
気圧1008hPa
METARENVA 280950Z 28023KT 9999 -RA FEW013 BKN019 08/06 Q1008 TEMPO BKN014 RMK WIND 670FT 29027KT
過去の天気等 Google飛行場航空写真 Wunderground天気予報

過去48時間のMETAR

飛行場予報(TAF)
発表時間: -
28日11時 CEST ~ 29日8時 CEST に一時的に
視程4000m
天気現象
全天の8割程度の雲 雲底高度 270m
28日11時 CEST ~ 29日2時 CEST に一時的に
風向・風速西 8m/s 瞬間風速 13m/s
TAF ENVA 2806/2906 28015KT 9999 -RADZ FEW010 BKN018
TEMPO 2809/2906 4000 RA BKN009
TEMPO 2809/2824 28015G25KT